createdAt,value
2016-11-02T00:00:18.661Z,930.43
2016-11-02T00:01:32.230Z,930.48
2016-11-02T00:02:45.813Z,930.49
2016-11-02T00:03:59.932Z,930.5
2016-11-02T00:05:13.566Z,930.55
2016-11-02T00:06:26.621Z,930.55
2016-11-02T00:07:40.330Z,930.58
2016-11-02T00:08:53.891Z,930.59
2016-11-02T00:10:07.633Z,930.62
2016-11-02T00:11:21.348Z,930.64
2016-11-02T00:12:35.184Z,930.69
2016-11-02T00:13:49.119Z,930.69
2016-11-02T00:15:02.809Z,930.68
2016-11-02T00:16:15.917Z,930.66
2016-11-02T00:17:29.546Z,930.7
2016-11-02T00:18:43.424Z,930.73
2016-11-02T00:19:57.157Z,930.81
2016-11-02T00:21:10.707Z,930.82
2016-11-02T00:22:24.459Z,930.82
2016-11-02T00:23:38.078Z,930.76
2016-11-02T00:24:51.894Z,930.78
2016-11-02T00:26:05.485Z,930.76
2016-11-02T00:27:19.586Z,930.75
2016-11-02T00:28:33.563Z,930.81
2016-11-02T00:29:47.501Z,930.83
2016-11-02T00:31:01.236Z,930.83
2016-11-02T00:32:15.127Z,930.87
2016-11-02T00:33:28.759Z,930.88
2016-11-02T00:34:42.439Z,930.94
2016-11-02T00:35:56.294Z,930.96
2016-11-02T00:37:09.862Z,930.96
2016-11-02T00:38:23.683Z,930.96
2016-11-02T00:39:37.506Z,931.02
2016-11-02T00:40:51.187Z,931
2016-11-02T00:42:04.837Z,930.98
2016-11-02T00:43:18.512Z,930.96
2016-11-02T00:44:32.349Z,931.02
2016-11-02T00:45:46.279Z,930.96
2016-11-02T00:47:00.059Z,930.94
2016-11-02T00:48:13.781Z,930.92
2016-11-02T00:49:27.458Z,930.94
2016-11-02T00:50:41.493Z,930.9
2016-11-02T00:51:55.322Z,930.93
2016-11-02T00:53:09.150Z,930.91
2016-11-02T00:54:22.319Z,930.89
2016-11-02T00:55:36.048Z,930.9
2016-11-02T00:56:49.824Z,930.93
2016-11-02T00:58:03.582Z,930.97
2016-11-02T00:59:17.477Z,930.94
2016-11-02T01:00:31.272Z,930.95
2016-11-02T01:01:45.180Z,930.96
2016-11-02T01:02:58.769Z,930.92
2016-11-02T01:04:12.476Z,930.93
2016-11-02T01:05:26.004Z,930.93
2016-11-02T01:06:39.757Z,930.97
2016-11-02T01:07:53.416Z,930.99
2016-11-02T01:09:07.142Z,931
2016-11-02T01:10:21.074Z,931.03
2016-11-02T01:11:34.682Z,931
2016-11-02T01:12:48.392Z,930.98
2016-11-02T01:14:01.464Z,930.97
2016-11-02T01:15:15.321Z,930.98
2016-11-02T01:16:29.239Z,930.98
2016-11-02T01:17:42.861Z,930.99
2016-11-02T01:18:56.363Z,930.97
2016-11-02T01:20:10.308Z,930.98
2016-11-02T01:21:24.320Z,930.96
2016-11-02T01:22:38.061Z,930.96
2016-11-02T01:23:51.905Z,930.94
2016-11-02T01:25:05.717Z,930.93
2016-11-02T01:26:18.769Z,930.96
2016-11-02T01:27:32.407Z,930.94
2016-11-02T01:28:46.091Z,930.94
2016-11-02T01:29:59.945Z,930.91
2016-11-02T01:31:13.596Z,930.91
2016-11-02T01:32:27.345Z,930.9
2016-11-02T01:33:41.414Z,930.86
2016-11-02T01:34:55.328Z,930.85
2016-11-02T01:36:09.324Z,930.79
2016-11-02T01:37:23.859Z,930.8
2016-11-02T01:38:37.640Z,930.77
2016-11-02T01:39:51.613Z,930.74
2016-11-02T01:41:05.046Z,930.76
2016-11-02T01:42:19.028Z,930.74
2016-11-02T01:43:32.715Z,930.74
2016-11-02T01:44:46.500Z,930.73
2016-11-02T01:46:00.143Z,930.76
2016-11-02T01:47:14.057Z,930.76
2016-11-02T01:48:27.776Z,930.75
2016-11-02T01:49:41.700Z,930.74
2016-11-02T01:50:55.408Z,930.68
2016-11-02T01:52:09.092Z,930.69
2016-11-02T01:53:22.738Z,930.64
2016-11-02T01:54:36.366Z,930.65
2016-11-02T01:55:49.415Z,930.57
2016-11-02T01:57:04.728Z,930.55
2016-11-02T01:58:18.509Z,930.53
2016-11-02T01:59:32.117Z,930.53
2016-11-02T02:00:45.785Z,930.51
2016-11-02T02:01:59.327Z,930.5
2016-11-02T02:03:12.687Z,930.46
2016-11-02T02:04:25.866Z,930.45
2016-11-02T02:05:39.484Z,930.45
2016-11-02T02:06:53.851Z,930.4
2016-11-02T02:08:07.480Z,930.38
2016-11-02T02:09:21.396Z,930.35
2016-11-02T02:10:35.113Z,930.32
2016-11-02T02:11:49.374Z,930.3
2016-11-02T02:13:03.042Z,930.29
2016-11-02T02:14:16.679Z,930.3
2016-11-02T02:15:30.295Z,930.3
2016-11-02T02:16:44.138Z,930.31
2016-11-02T02:17:57.719Z,930.3
2016-11-02T02:19:11.637Z,930.26
2016-11-02T02:20:25.314Z,930.19
2016-11-02T02:21:38.886Z,930.15
2016-11-02T02:22:52.504Z,930.14
2016-11-02T02:24:06.265Z,930.06
2016-11-02T02:25:20.077Z,930.07
2016-11-02T02:26:33.937Z,930.02
2016-11-02T02:27:47.825Z,930.01
2016-11-02T02:29:01.013Z,929.99
2016-11-02T02:30:14.728Z,930
2016-11-02T02:31:28.424Z,930.01
2016-11-02T02:32:41.661Z,929.97
2016-11-02T02:33:55.546Z,929.94
2016-11-02T02:35:09.257Z,929.91
2016-11-02T02:36:22.925Z,929.97
2016-11-02T02:37:36.656Z,929.96
2016-11-02T02:38:50.340Z,930.01
2016-11-02T02:40:03.920Z,929.95
2016-11-02T02:41:17.827Z,929.96
2016-11-02T02:42:31.024Z,929.94
2016-11-02T02:43:44.661Z,929.93
2016-11-02T02:44:58.203Z,930
2016-11-02T02:46:11.811Z,929.97
2016-11-02T02:47:25.413Z,929.91
2016-11-02T02:48:38.940Z,929.84
2016-11-02T02:49:52.679Z,929.81
2016-11-02T02:51:07.139Z,929.82
2016-11-02T02:52:20.887Z,929.74
2016-11-02T02:53:34.229Z,929.69
2016-11-02T02:54:47.923Z,929.69
2016-11-02T02:56:01.663Z,929.67
2016-11-02T02:57:15.276Z,929.65
2016-11-02T02:58:28.907Z,929.63
2016-11-02T02:59:42.422Z,929.63
2016-11-02T03:00:56.270Z,929.63
2016-11-02T03:02:09.909Z,929.6
2016-11-02T03:03:23.639Z,929.61
2016-11-02T03:04:37.263Z,929.64
2016-11-02T03:05:51.196Z,929.65
2016-11-02T03:07:05.106Z,929.64
2016-11-02T03:08:18.751Z,929.61
2016-11-02T03:09:32.331Z,929.59
2016-11-02T03:10:45.936Z,929.51
2016-11-02T03:11:59.698Z,929.49
2016-11-02T03:13:13.471Z,929.43
2016-11-02T03:14:27.066Z,929.46
2016-11-02T03:15:40.655Z,929.44
2016-11-02T03:16:54.568Z,929.44
2016-11-02T03:18:08.130Z,929.46
2016-11-02T03:19:21.690Z,929.51
2016-11-02T03:20:35.309Z,929.48
2016-11-02T03:21:48.880Z,929.52
2016-11-02T03:23:02.470Z,929.52
2016-11-02T03:24:16.097Z,929.48
2016-11-02T03:25:29.718Z,929.52
2016-11-02T03:26:43.346Z,929.45
2016-11-02T03:27:56.911Z,929.46
2016-11-02T03:29:10.451Z,929.51
2016-11-02T03:30:23.500Z,929.53
2016-11-02T03:31:37.117Z,929.48
2016-11-02T03:32:50.769Z,929.56
2016-11-02T03:34:04.330Z,929.55
2016-11-02T03:35:17.981Z,929.56
2016-11-02T03:36:31.543Z,929.58
2016-11-02T03:37:45.180Z,929.55
2016-11-02T03:38:58.767Z,929.59
2016-11-02T03:40:12.430Z,929.58
2016-11-02T03:41:26.001Z,929.56
2016-11-02T03:42:39.558Z,929.49
2016-11-02T03:43:53.140Z,929.47
2016-11-02T03:45:06.146Z,929.44
2016-11-02T03:46:19.720Z,929.4
2016-11-02T03:47:33.430Z,929.36
2016-11-02T03:48:46.970Z,929.37
2016-11-02T03:50:00.521Z,929.35
2016-11-02T03:51:14.059Z,929.35
2016-11-02T03:52:27.651Z,929.34
2016-11-02T03:53:41.196Z,929.37
2016-11-02T03:54:54.886Z,929.33
2016-11-02T03:56:08.471Z,929.31
2016-11-02T03:57:22.150Z,929.29
2016-11-02T03:58:35.630Z,929.31
2016-11-02T03:59:49.201Z,929.28
2016-11-02T04:01:02.785Z,929.26
2016-11-02T04:02:16.294Z,929.21
2016-11-02T04:03:31.292Z,929.16
2016-11-02T04:04:44.931Z,929.17
2016-11-02T04:05:58.599Z,929.14
2016-11-02T04:07:12.229Z,929.09
2016-11-02T04:08:25.868Z,929.1
2016-11-02T04:09:39.408Z,929.05
2016-11-02T04:10:52.487Z,929.1
2016-11-02T04:12:06.165Z,929.08
2016-11-02T04:13:19.776Z,929.06
2016-11-02T04:14:33.442Z,928.99
2016-11-02T04:15:47.084Z,929.01
2016-11-02T04:17:00.714Z,929.02
2016-11-02T04:18:14.528Z,929.01
2016-11-02T04:19:27.845Z,928.97
2016-11-02T04:20:41.527Z,929
2016-11-02T04:21:55.137Z,928.98
2016-11-02T04:23:08.755Z,928.96
2016-11-02T04:24:22.402Z,928.94
2016-11-02T04:25:35.997Z,928.98
2016-11-02T04:26:49.650Z,928.96
2016-11-02T04:28:03.239Z,928.99
2016-11-02T04:29:16.847Z,928.95
2016-11-02T04:30:30.536Z,928.91
2016-11-02T04:31:44.158Z,928.93
2016-11-02T04:32:57.755Z,928.88
2016-11-02T04:34:10.867Z,928.82
2016-11-02T04:35:23.968Z,928.81
2016-11-02T04:36:37.539Z,928.8
2016-11-02T04:37:51.162Z,928.81
2016-11-02T04:39:04.801Z,928.78
2016-11-02T04:40:18.457Z,928.79
2016-11-02T04:41:31.559Z,928.81
2016-11-02T04:42:45.162Z,928.82
2016-11-02T04:43:58.814Z,928.84
2016-11-02T04:45:12.435Z,928.83
2016-11-02T04:46:26.002Z,928.82
2016-11-02T04:47:39.726Z,928.82
2016-11-02T04:48:53.334Z,928.82
2016-11-02T04:50:06.960Z,928.81
2016-11-02T04:51:20.904Z,928.86
2016-11-02T04:52:34.506Z,928.8
2016-11-02T04:53:48.136Z,928.74
2016-11-02T04:55:01.747Z,928.73
2016-11-02T04:56:15.424Z,928.7
2016-11-02T04:57:29.058Z,928.77
2016-11-02T04:58:42.721Z,928.71
2016-11-02T04:59:56.401Z,928.68
2016-11-02T05:01:10.023Z,928.6
2016-11-02T05:02:23.937Z,928.59
2016-11-02T05:03:37.527Z,928.59
2016-11-02T05:04:51.195Z,928.61
2016-11-02T05:06:04.793Z,928.61
2016-11-02T05:07:18.129Z,928.63
2016-11-02T05:08:31.790Z,928.64
2016-11-02T05:09:45.378Z,928.56
2016-11-02T05:10:58.938Z,928.58
2016-11-02T05:12:12.500Z,928.52
2016-11-02T05:13:26.143Z,928.59
2016-11-02T05:14:39.798Z,928.62
2016-11-02T05:15:53.175Z,928.57
2016-11-02T05:17:06.806Z,928.56
2016-11-02T05:18:20.427Z,928.56
2016-11-02T05:19:34.049Z,928.57
2016-11-02T05:20:47.719Z,928.53
2016-11-02T05:22:00.832Z,928.47
2016-11-02T05:23:13.994Z,928.5
2016-11-02T05:24:27.574Z,928.53
2016-11-02T05:25:41.172Z,928.49
2016-11-02T05:26:54.743Z,928.51
2016-11-02T05:28:07.467Z,928.56
2016-11-02T05:29:21.077Z,928.49
2016-11-02T05:30:34.641Z,928.57
2016-11-02T05:31:48.277Z,928.59
2016-11-02T05:33:01.919Z,928.6
2016-11-02T05:34:15.569Z,928.61
2016-11-02T05:35:29.147Z,928.62
2016-11-02T05:36:56.150Z,928.62
2016-11-02T05:38:09.288Z,928.57
2016-11-02T05:39:22.610Z,928.61
2016-11-02T05:40:36.169Z,928.58
2016-11-02T05:41:49.702Z,928.52
2016-11-02T05:43:03.232Z,928.52
2016-11-02T05:44:16.880Z,928.49
2016-11-02T05:45:30.510Z,928.5
2016-11-02T05:46:44.091Z,928.43
2016-11-02T05:47:57.712Z,928.42
2016-11-02T05:49:10.812Z,928.34
2016-11-02T05:50:24.457Z,928.37
2016-11-02T05:51:37.501Z,928.3
2016-11-02T05:52:50.919Z,928.32
2016-11-02T05:54:04.521Z,928.36
2016-11-02T05:55:18.155Z,928.38
2016-11-02T05:56:31.799Z,928.34
2016-11-02T05:57:45.478Z,928.39
2016-11-02T05:58:57.985Z,928.41
2016-11-02T06:00:11.624Z,928.4
2016-11-02T06:01:25.630Z,928.43
2016-11-02T06:02:39.328Z,928.46
2016-11-02T06:03:52.978Z,928.41
2016-11-02T06:05:06.516Z,928.44
2016-11-02T06:06:20.231Z,928.43
2016-11-02T06:07:33.859Z,928.46
2016-11-02T06:08:47.732Z,928.46
2016-11-02T06:10:01.340Z,928.42
2016-11-02T06:11:14.960Z,928.49
2016-11-02T06:12:28.657Z,928.49
2016-11-02T06:13:42.211Z,928.5
2016-11-02T06:14:55.869Z,928.57
2016-11-02T06:16:10.438Z,928.61
2016-11-02T06:17:23.565Z,928.69
2016-11-02T06:18:36.720Z,928.69
2016-11-02T06:19:50.453Z,928.65
2016-11-02T06:21:04.064Z,928.71
2016-11-02T06:22:17.864Z,928.68
2016-11-02T06:23:31.519Z,928.66
2016-11-02T06:24:44.924Z,928.63
2016-11-02T06:25:58.524Z,928.62
2016-11-02T06:27:12.174Z,928.58
2016-11-02T06:28:25.270Z,928.56
2016-11-02T06:29:38.821Z,928.53
2016-11-02T06:30:52.442Z,928.56
2016-11-02T06:32:06.132Z,928.53
2016-11-02T06:33:19.758Z,928.54
2016-11-02T06:34:33.376Z,928.56
2016-11-02T06:35:47.047Z,928.55
2016-11-02T06:37:00.693Z,928.56
2016-11-02T06:38:13.830Z,928.54
2016-11-02T06:39:27.488Z,928.5
2016-11-02T06:40:41.147Z,928.5
2016-11-02T06:41:54.779Z,928.44
2016-11-02T06:43:08.393Z,928.45
2016-11-02T06:44:22.020Z,928.52
2016-11-02T06:45:35.410Z,928.58
2016-11-02T06:46:48.494Z,928.62
2016-11-02T06:48:02.082Z,928.64
2016-11-02T06:49:15.705Z,928.66
2016-11-02T06:50:28.825Z,928.66
2016-11-02T06:51:42.437Z,928.64
2016-11-02T06:52:56.086Z,928.68
2016-11-02T06:54:09.202Z,928.65
2016-11-02T06:55:22.886Z,928.63
2016-11-02T06:56:36.523Z,928.61
2016-11-02T06:57:49.923Z,928.6
2016-11-02T06:59:03.599Z,928.59
2016-11-02T07:00:17.235Z,928.57
2016-11-02T07:01:29.996Z,928.57
2016-11-02T07:02:43.099Z,928.6
2016-11-02T07:03:56.687Z,928.58
2016-11-02T07:05:10.455Z,928.61
2016-11-02T07:06:24.102Z,928.59
2016-11-02T07:07:37.151Z,928.61
2016-11-02T07:08:51.074Z,928.62
2016-11-02T07:10:04.725Z,928.63
2016-11-02T07:11:17.801Z,928.59
2016-11-02T07:12:31.374Z,928.65
2016-11-02T07:13:45.038Z,928.65
2016-11-02T07:14:58.621Z,928.64
2016-11-02T07:16:12.206Z,928.66
2016-11-02T07:17:25.481Z,928.66
2016-11-02T07:18:39.140Z,928.65
2016-11-02T07:19:52.236Z,928.68
2016-11-02T07:21:05.847Z,928.67
2016-11-02T07:22:18.906Z,928.66
2016-11-02T07:23:32.555Z,928.65
2016-11-02T07:24:46.239Z,928.7
2016-11-02T07:25:59.353Z,928.72
2016-11-02T07:27:12.960Z,928.67
2016-11-02T07:28:26.344Z,928.67
2016-11-02T07:29:39.976Z,928.68
2016-11-02T07:30:53.121Z,928.72
2016-11-02T07:32:06.777Z,928.73
2016-11-02T07:33:20.381Z,928.74
2016-11-02T07:34:33.955Z,928.84
2016-11-02T07:35:47.577Z,928.81
2016-11-02T07:37:01.192Z,928.83
2016-11-02T07:38:14.947Z,928.9
2016-11-02T07:39:28.574Z,928.85
2016-11-02T07:40:41.322Z,928.87
2016-11-02T07:41:54.881Z,928.85
2016-11-02T07:43:07.986Z,928.87
2016-11-02T07:44:21.606Z,928.84
2016-11-02T07:45:34.980Z,928.83
2016-11-02T07:46:48.545Z,928.84
2016-11-02T07:48:02.182Z,928.85
2016-11-02T07:49:15.303Z,928.85
2016-11-02T07:50:28.931Z,928.86
2016-11-02T07:51:41.974Z,928.87
2016-11-02T07:52:55.549Z,928.9
2016-11-02T07:54:08.646Z,928.95
2016-11-02T07:55:21.711Z,928.91
2016-11-02T07:56:34.846Z,928.91
2016-11-02T07:57:48.077Z,928.92
2016-11-02T07:59:01.667Z,928.9
2016-11-02T08:00:15.210Z,928.91
2016-11-02T08:01:28.840Z,928.86
2016-11-02T08:02:41.973Z,928.87
2016-11-02T08:03:55.095Z,928.84
2016-11-02T08:05:08.706Z,928.89
2016-11-02T08:06:21.753Z,928.86
2016-11-02T08:07:34.997Z,928.88
2016-11-02T08:08:48.618Z,928.85
2016-11-02T08:10:02.200Z,928.88
2016-11-02T08:11:15.805Z,928.91
2016-11-02T08:12:28.918Z,928.9
2016-11-02T08:13:42.516Z,928.92
2016-11-02T08:14:56.115Z,928.97
2016-11-02T08:16:09.122Z,928.98
2016-11-02T08:17:22.113Z,928.94
2016-11-02T08:18:35.740Z,928.96
2016-11-02T08:19:48.851Z,928.93
2016-11-02T08:21:02.491Z,928.94
2016-11-02T08:22:15.147Z,928.94
2016-11-02T08:23:28.190Z,928.92
2016-11-02T08:24:41.738Z,928.89
2016-11-02T08:25:55.061Z,928.87
2016-11-02T08:27:08.663Z,928.9
2016-11-02T08:28:22.261Z,928.89
2016-11-02T08:29:35.874Z,928.93
2016-11-02T08:30:49.520Z,928.89
2016-11-02T08:32:03.100Z,928.85
2016-11-02T08:33:16.732Z,928.9
2016-11-02T08:34:30.391Z,928.91
2016-11-02T08:35:43.428Z,928.87
2016-11-02T08:36:57.142Z,928.91
2016-11-02T08:38:10.854Z,928.89
2016-11-02T08:39:24.472Z,928.92
2016-11-02T08:40:37.539Z,928.96
2016-11-02T08:41:50.877Z,928.98
2016-11-02T08:43:02.863Z,928.95
2016-11-02T08:44:16.498Z,929
2016-11-02T08:45:29.535Z,929.02
2016-11-02T08:46:43.149Z,929
2016-11-02T08:47:55.675Z,929.01
2016-11-02T08:49:08.694Z,928.99
2016-11-02T08:50:22.275Z,929
2016-11-02T08:51:35.302Z,929
2016-11-02T08:52:48.920Z,929.01
2016-11-02T08:54:02.564Z,929.02
2016-11-02T08:55:15.648Z,929.06
2016-11-02T08:56:29.249Z,929.1
2016-11-02T08:57:41.780Z,929.15
2016-11-02T08:58:54.845Z,929.15
2016-11-02T09:00:08.416Z,929.16
2016-11-02T09:01:22.026Z,929.19
2016-11-02T09:02:35.624Z,929.24
2016-11-02T09:03:48.692Z,929.25
2016-11-02T09:05:02.294Z,929.26
2016-11-02T09:06:15.352Z,929.25
2016-11-02T09:07:28.919Z,929.27
2016-11-02T09:08:41.429Z,929.25
2016-11-02T09:09:54.449Z,929.32
2016-11-02T09:11:08.027Z,929.35
2016-11-02T09:12:21.371Z,929.33
2016-11-02T09:13:34.953Z,929.32
2016-11-02T09:14:48.018Z,929.34
2016-11-02T09:16:01.635Z,929.35
2016-11-02T09:17:15.705Z,929.38
2016-11-02T09:18:28.819Z,929.41
2016-11-02T09:19:41.873Z,929.39
2016-11-02T09:20:54.956Z,929.45
2016-11-02T09:22:08.496Z,929.48
2016-11-02T09:23:22.124Z,929.52
2016-11-02T09:24:35.731Z,929.56
2016-11-02T09:25:48.829Z,929.56
2016-11-02T09:27:02.419Z,929.59
2016-11-02T09:28:15.997Z,929.61
2016-11-02T09:29:29.607Z,929.6
2016-11-02T09:30:42.645Z,929.64
2016-11-02T09:31:55.731Z,929.64
2016-11-02T09:33:09.337Z,929.61
2016-11-02T09:34:22.660Z,929.63
2016-11-02T09:35:36.241Z,929.6
2016-11-02T09:36:49.776Z,929.62
2016-11-02T09:38:02.326Z,929.6
2016-11-02T09:39:15.936Z,929.58
2016-11-02T09:40:28.935Z,929.61
2016-11-02T09:41:41.994Z,929.58
2016-11-02T09:42:55.061Z,929.6
2016-11-02T09:44:08.750Z,929.59
2016-11-02T09:45:21.851Z,929.6
2016-11-02T09:46:35.447Z,929.64
2016-11-02T09:47:48.801Z,929.63
2016-11-02T09:49:01.892Z,929.69
2016-11-02T09:50:14.978Z,929.68
2016-11-02T09:51:28.529Z,929.72
2016-11-02T09:52:42.136Z,929.68
2016-11-02T09:53:55.194Z,929.71
2016-11-02T09:55:08.275Z,929.75
2016-11-02T09:56:21.857Z,929.79
2016-11-02T09:57:35.435Z,929.79
2016-11-02T09:58:49.037Z,929.86
2016-11-02T10:00:02.121Z,929.86
2016-11-02T10:01:15.212Z,929.85
2016-11-02T10:02:28.761Z,929.88
2016-11-02T10:03:42.431Z,929.91
2016-11-02T10:04:55.440Z,929.95
2016-11-02T10:06:09.063Z,929.98
2016-11-02T10:07:22.050Z,930
2016-11-02T10:08:35.689Z,930.05
2016-11-02T10:09:49.233Z,930.05
2016-11-02T10:11:02.840Z,930.07
2016-11-02T10:12:16.399Z,930.03
2016-11-02T10:13:29.453Z,930.08
2016-11-02T10:14:42.972Z,930.02
2016-11-02T10:15:56.622Z,930.02
2016-11-02T10:17:10.203Z,930.03
2016-11-02T10:18:23.254Z,930.03
2016-11-02T10:19:36.466Z,930.03
2016-11-02T10:20:50.089Z,930.03
2016-11-02T10:22:03.140Z,930.06
2016-11-02T10:23:16.727Z,930.09
2016-11-02T10:24:30.269Z,930.08
2016-11-02T10:25:43.849Z,930.09
2016-11-02T10:26:56.851Z,930.07
2016-11-02T10:28:10.466Z,930.1
2016-11-02T10:29:24.067Z,930.08
2016-11-02T10:30:37.647Z,930.08
2016-11-02T10:31:51.286Z,930.11
2016-11-02T10:33:04.888Z,930.09
2016-11-02T10:34:18.162Z,930.08
2016-11-02T10:35:31.695Z,929.99
2016-11-02T10:36:45.482Z,930.07
2016-11-02T10:37:59.076Z,930.06
2016-11-02T10:39:12.148Z,930.01
2016-11-02T10:40:25.711Z,929.99
2016-11-02T10:41:38.712Z,930
2016-11-02T10:42:51.751Z,930.04
2016-11-02T10:44:05.352Z,930.06
2016-11-02T10:45:18.908Z,930.03
2016-11-02T10:46:32.561Z,930.02
2016-11-02T10:47:46.185Z,930.07
2016-11-02T10:48:59.860Z,930.11
2016-11-02T10:50:12.562Z,930.06
2016-11-02T10:51:26.131Z,930.08
2016-11-02T10:52:39.787Z,930.04
2016-11-02T10:53:52.789Z,930.01
2016-11-02T10:55:06.332Z,930.04
2016-11-02T10:56:19.667Z,930.06
2016-11-02T10:57:32.789Z,930.05
2016-11-02T10:58:45.829Z,930.01
2016-11-02T10:59:58.868Z,929.99
2016-11-02T11:01:12.586Z,930.11
2016-11-02T11:02:26.210Z,930.08
2016-11-02T11:03:39.888Z,930.12
2016-11-02T11:04:53.500Z,930.09
2016-11-02T11:06:07.149Z,930.1
2016-11-02T11:07:19.651Z,930.08
2016-11-02T11:08:32.653Z,930.07
2016-11-02T11:09:46.343Z,930.12
2016-11-02T11:10:59.944Z,930.12
2016-11-02T11:12:13.524Z,930.13
2016-11-02T11:13:27.129Z,930.1
2016-11-02T11:14:40.674Z,930.17
2016-11-02T11:15:54.332Z,930.11
2016-11-02T11:17:07.615Z,930.14
2016-11-02T11:18:21.251Z,930.11
2016-11-02T11:19:34.852Z,930.09
2016-11-02T11:20:48.817Z,930.1
2016-11-02T11:22:02.418Z,930.07
2016-11-02T11:23:15.662Z,930.11
2016-11-02T11:24:29.301Z,930.03
2016-11-02T11:25:42.816Z,930.12
2016-11-02T11:26:55.295Z,930.1
2016-11-02T11:28:08.865Z,930.15
2016-11-02T11:29:22.476Z,930.06
2016-11-02T11:30:36.082Z,930.09
2016-11-02T11:31:48.377Z,930.04
2016-11-02T11:33:01.437Z,930.11
2016-11-02T11:34:14.454Z,930.06
2016-11-02T11:35:27.569Z,930.08
2016-11-02T11:36:41.430Z,930.09
2016-11-02T11:37:55.100Z,930.13
2016-11-02T11:39:08.218Z,930.17
2016-11-02T11:40:21.318Z,930.16
2016-11-02T11:41:34.885Z,930.19
2016-11-02T11:42:48.761Z,930.13
2016-11-02T11:44:01.812Z,930.19
2016-11-02T11:45:14.859Z,930.14
2016-11-02T11:46:27.918Z,930.1
2016-11-02T11:47:40.737Z,930.05
2016-11-02T11:48:54.411Z,930.05
2016-11-02T11:50:07.428Z,930.17
2016-11-02T11:51:21.074Z,930.19
2016-11-02T11:52:34.332Z,930.25
2016-11-02T11:53:47.882Z,930.13
2016-11-02T11:55:01.000Z,930.14
2016-11-02T11:56:14.003Z,930.35
2016-11-02T11:57:27.558Z,930.41
2016-11-02T11:58:41.415Z,930.26
2016-11-02T11:59:55.077Z,930.27
2016-11-02T12:01:08.744Z,930.22
2016-11-02T12:02:22.363Z,930.44
2016-11-02T12:03:35.411Z,930.25
2016-11-02T12:04:48.986Z,930.15
2016-11-02T12:06:01.815Z,930.13
2016-11-02T12:07:15.728Z,930.15
2016-11-02T12:08:29.326Z,930.19
2016-11-02T12:09:42.388Z,930.17
2016-11-02T12:10:55.635Z,930.16
2016-11-02T12:12:08.709Z,930.3
2016-11-02T12:13:22.260Z,930.28
2016-11-02T12:14:34.807Z,930.16
2016-11-02T12:15:48.747Z,930.15
2016-11-02T12:17:01.813Z,930.19
2016-11-02T12:18:15.686Z,930.14
2016-11-02T12:19:29.243Z,930.13
2016-11-02T12:20:42.816Z,930.22
2016-11-02T12:21:55.954Z,930.04
2016-11-02T12:23:09.644Z,930.09
2016-11-02T12:24:23.272Z,930.11
2016-11-02T12:25:36.885Z,930.05
2016-11-02T12:26:49.454Z,930.09
2016-11-02T12:28:02.468Z,930.19
2016-11-02T12:29:16.036Z,930.16
2016-11-02T12:30:29.596Z,930.16
2016-11-02T12:31:43.175Z,930.06
2016-11-02T12:32:56.798Z,930.13
2016-11-02T12:34:09.917Z,929.96
2016-11-02T12:35:23.016Z,930.07
2016-11-02T12:36:35.794Z,930.04
2016-11-02T12:37:49.423Z,929.89
2016-11-02T12:39:03.051Z,930.06
2016-11-02T12:40:16.743Z,930.1
2016-11-02T12:41:30.337Z,929.97
2016-11-02T12:42:43.955Z,930.03
2016-11-02T12:43:57.537Z,930.03
2016-11-02T12:45:10.610Z,929.95
2016-11-02T12:46:24.259Z,929.99
2016-11-02T12:47:37.337Z,930.03
2016-11-02T12:48:50.972Z,930.1
2016-11-02T12:50:04.647Z,930.03
2016-11-02T12:51:18.210Z,929.99
2016-11-02T12:52:31.259Z,929.92
2016-11-02T12:53:44.871Z,930.06
2016-11-02T12:54:58.445Z,930.02
2016-11-02T12:56:12.031Z,930.08
2016-11-02T12:57:25.295Z,930.15
2016-11-02T12:58:38.352Z,930.17
2016-11-02T12:59:51.231Z,930.05
2016-11-02T13:01:04.853Z,930.05
2016-11-02T13:02:18.512Z,930.1
2016-11-02T13:03:32.031Z,930.15
2016-11-02T13:04:45.890Z,930.12
2016-11-02T13:05:59.458Z,930.11
2016-11-02T13:07:13.024Z,930.04
2016-11-02T13:08:25.577Z,930.09
2016-11-02T13:09:38.065Z,930.29
2016-11-02T13:10:51.398Z,930.3
2016-11-02T13:12:05.008Z,930.25
2016-11-02T13:13:18.673Z,930.02
2016-11-02T13:14:31.760Z,930.04
2016-11-02T13:15:45.372Z,930.06
2016-11-02T13:16:59.109Z,930.16
2016-11-02T13:18:12.938Z,930.09
2016-11-02T13:19:26.111Z,930.16
2016-11-02T13:20:39.777Z,930.15
2016-11-02T13:21:52.299Z,930.19
2016-11-02T13:23:05.346Z,930.12
2016-11-02T13:24:19.285Z,930.1
2016-11-02T13:25:32.408Z,930.05
2016-11-02T13:26:46.215Z,930.08
2016-11-02T13:27:59.842Z,930
2016-11-02T13:29:12.950Z,930.57
2016-11-02T13:30:25.485Z,930.39
2016-11-02T13:31:39.022Z,930.33
2016-11-02T13:32:52.672Z,930.04
2016-11-02T13:34:05.304Z,929.94
2016-11-02T13:35:19.253Z,930.24
2016-11-02T13:36:32.339Z,929.95
2016-11-02T13:37:45.486Z,930.15
2016-11-02T13:38:59.045Z,930.36
2016-11-02T13:40:12.111Z,930.22
2016-11-02T13:41:25.683Z,930.02
2016-11-02T13:42:38.725Z,930.22
2016-11-02T13:43:51.869Z,929.99
2016-11-02T13:45:05.474Z,929.96
2016-11-02T13:46:19.245Z,929.9
2016-11-02T13:47:32.766Z,929.98
2016-11-02T13:48:46.320Z,929.94
2016-11-02T13:49:59.939Z,929.94
2016-11-02T13:51:13.498Z,929.85
2016-11-02T13:52:27.161Z,929.86
2016-11-02T13:53:40.693Z,929.89
2016-11-02T13:54:53.757Z,929.96
2016-11-02T13:56:07.409Z,929.82
2016-11-02T13:57:21.048Z,929.89
2016-11-02T13:58:34.602Z,929.77
2016-11-02T13:59:48.118Z,929.93
2016-11-02T14:01:01.795Z,930.14
2016-11-02T14:02:15.460Z,930.15
2016-11-02T14:03:29.086Z,930.03
2016-11-02T14:04:42.672Z,930.08
2016-11-02T14:05:55.936Z,930.12
2016-11-02T14:07:09.559Z,930.25
2016-11-02T14:08:22.627Z,929.96
2016-11-02T14:09:36.205Z,929.85
2016-11-02T14:10:48.711Z,929.96
2016-11-02T14:12:02.290Z,929.94
2016-11-02T14:13:16.200Z,929.92
2016-11-02T14:14:29.801Z,930.05
2016-11-02T14:15:43.717Z,930.01
2016-11-02T14:16:56.808Z,929.93
2016-11-02T14:18:10.355Z,929.87
2016-11-02T14:19:24.061Z,929.86
2016-11-02T14:20:37.596Z,929.99
2016-11-02T14:21:50.876Z,929.92
2016-11-02T14:23:03.923Z,929.95
2016-11-02T14:24:17.514Z,929.79
2016-11-02T14:25:31.137Z,930.04
2016-11-02T14:26:44.790Z,929.79
2016-11-02T14:27:58.405Z,930.11
2016-11-02T14:29:12.305Z,929.87
2016-11-02T14:30:25.955Z,929.82
2016-11-02T14:31:39.622Z,929.78
2016-11-02T14:32:53.245Z,929.8
2016-11-02T14:34:06.875Z,929.65
2016-11-02T14:35:20.457Z,929.77
2016-11-02T14:36:34.147Z,929.69
2016-11-02T14:37:47.786Z,929.8
2016-11-02T14:39:01.366Z,929.75
2016-11-02T14:40:14.942Z,929.7
2016-11-02T14:41:28.566Z,929.85
2016-11-02T14:42:42.213Z,929.7
2016-11-02T14:43:55.781Z,929.67
2016-11-02T14:45:09.417Z,929.83
2016-11-02T14:46:23.001Z,929.8
2016-11-02T14:47:36.615Z,929.74
2016-11-02T14:48:50.237Z,929.66
2016-11-02T14:50:03.868Z,929.74
2016-11-02T14:51:17.445Z,929.94
2016-11-02T14:52:31.068Z,929.49
2016-11-02T14:53:44.875Z,929.65
2016-11-02T14:54:58.552Z,929.94
2016-11-02T14:56:12.224Z,929.54
2016-11-02T14:57:25.953Z,929.9
2016-11-02T14:58:39.557Z,929.51
2016-11-02T14:59:52.673Z,929.51
2016-11-02T15:01:06.277Z,929.33
2016-11-02T15:02:19.892Z,929.58
2016-11-02T15:03:33.498Z,929.78
2016-11-02T15:04:46.567Z,929.44
2016-11-02T15:05:59.991Z,929.4
2016-11-02T15:07:13.623Z,929.46
2016-11-02T15:08:27.245Z,929.4
2016-11-02T15:09:40.794Z,929.51
2016-11-02T15:10:54.345Z,929.49
2016-11-02T15:12:07.977Z,929.29
2016-11-02T15:13:21.632Z,929.37
2016-11-02T15:14:35.272Z,929.27
2016-11-02T15:15:49.194Z,929.19
2016-11-02T15:17:02.938Z,929.27
2016-11-02T15:18:16.595Z,929.28
2016-11-02T15:19:30.554Z,929.06
2016-11-02T15:20:44.174Z,929.37